Time;durP1;ratioP1;P1;durP2;ratioP2;P2;SDS_P1;SDS_P2;PMS_P1;PMS_P2;Temp;Humidity;BMP_temperature;BMP_pressure;BME280_temperature;BME280_humidity;BME280_pressure;Samples;Min_cycle;Max_cycle;Signal;HPM_P1;HPM_P2
2022/04/13 00:00:44;;;;;;;;;;;;;;;-139.34;100.00;63888.56;10569216;28;19949;-62
2022/04/13 00:06:06;;;;;;;;;;;;;;;-139.34;100.00;63888.56;10555686;28;20313;-62
2022/04/13 00:11:27;;;;;;;;;;;;;;;-139.34;100.00;63888.56;10526220;28;19920;-62
2022/04/13 00:16:50;;;;;;;;;;;;;;;-139.34;100.00;63888.56;10558973;28;19920;-62
2022/04/13 00:22:12;;;;;;;;;;;;;;;-139.34;100.00;63888.56;10563931;28;19919;-62
2022/04/13 00:27:33;;;;;;;;;;;;;;;-139.34;100.00;63888.56;10567895;28;19930;-62
2022/04/13 00:33:02;;;;;;;;;;;;;;;13.88;63.54;100961.53;10522280;27;19927;-62
2022/04/13 00:38:24;;;;;;;;;;;;;;;13.90;64.11;100962.25;10528315;28;19924;-62
2022/04/13 00:43:59;;;;;;;;;;;;;;;13.88;63.87;100958.91;10523963;28;19928;-62
2022/04/13 00:49:22;;;;;;;;;;;;;;;13.85;60.96;100956.50;10529847;28;19931;-61
2022/04/13 00:54:47;;;;;;;;;;;;;;;13.82;65.12;100965.44;10520796;28;20201;-62
2022/04/13 01:00:12;;;;;;;;;;;;;;;13.78;65.30;100958.75;10527707;28;19940;-62
2022/04/13 01:05:35;;;;;;;;;;;;;;;13.74;65.49;100946.88;10521582;28;19925;-61
2022/04/13 01:10:58;;;;;;;;;;;;;;;13.71;65.83;100951.47;10566924;28;19936;-62
2022/04/13 01:16:20;;;;;;;;;;;;;;;13.69;65.34;100969.09;10522701;28;19924;-61
2022/04/13 01:21:45;;;;;;;;;;;;;;;13.61;65.56;100961.81;10526901;28;19935;-62
2022/04/13 01:27:07;;;;;;;;;;;;;;;13.57;66.20;100964.78;10525129;28;19924;-62
2022/04/13 01:32:28;;;;;;;;;;;;;;;13.52;66.23;100972.97;10560206;28;19932;-62
2022/04/13 01:37:50;;;;;;;;;;;;;;;13.49;66.51;100975.00;10570214;28;19930;-62
2022/04/13 01:43:12;;;;;;;;;;;;;;;13.43;66.46;100962.34;10535143;28;19924;-62
2022/04/13 01:48:33;;;;;;;;;;;;;;;13.37;66.88;100970.69;10535040;28;19924;-62
2022/04/13 01:53:55;;;;;;;;;;;;;;;13.31;65.96;100983.38;10552442;28;19932;-61
2022/04/13 01:59:16;;;;;;;;;;;;;;;13.33;66.52;100977.06;10563138;28;20338;-61
2022/04/13 02:04:38;;;;;;;;;;;;;;;13.27;nan;100988.00;10540196;28;20426;-62
2022/04/13 02:09:59;;;;;;;;;;;;;;;13.26;66.26;100982.88;10538808;28;19932;-62
2022/04/13 02:15:21;;;;;;;;;;;;;;;13.21;67.10;100988.44;10536114;28;19935;-60
2022/04/13 02:20:42;;;;;;;;;;;;;;;13.17;67.84;100984.38;10538240;28;19940;-62
2022/04/13 02:26:04;;;;;;;;;;;;;;;13.11;67.50;100982.19;10537640;28;20373;-62
2022/04/13 02:31:26;;;;;;;;;;;;;;;13.09;67.49;100988.50;10531616;28;19928;-62
2022/04/13 02:36:47;;;;;;;;;;;;;;;13.11;67.60;100992.66;10534055;28;19946;-62
2022/04/13 02:42:12;;;;;;;;;;;;;;;13.06;67.01;100994.78;10535635;28;19935;-61
2022/04/13 02:47:34;;;;;;;;;;;;;;;13.04;67.42;100996.69;10536606;28;19924;-62
2022/04/13 02:52:56;;;;;;;;;;;;;;;12.99;68.70;100993.53;10520146;28;20037;-62
2022/04/13 02:58:18;;;;;;;;;;;;;;;12.93;68.57;101004.47;10553251;28;19928;-61
2022/04/13 03:03:40;;;;;;;;;;;;;;;12.87;68.25;101007.47;10545712;28;19928;-59
2022/04/13 03:09:03;;;;;;;;;;;;;;;12.82;68.56;101011.38;10547281;28;19924;-61
2022/04/13 03:14:25;;;;;;;;;;;;;;;12.75;69.35;101015.34;10538114;28;20365;-61
2022/04/13 03:19:46;;;;;;;;;;;;;;;12.69;69.11;101021.84;10508222;28;19928;-62
2022/04/13 03:25:08;;;;;;;;;;;;;;;12.68;69.82;101009.72;10514590;28;19924;-62
2022/04/13 03:30:29;;;;;;;;;;;;;;;12.61;69.62;101003.25;10533787;28;19928;-61
2022/04/13 03:35:51;;;;;;;;;;;;;;;12.56;70.66;101010.56;10530615;28;19942;-62
2022/04/13 03:41:12;;;;;;;;;;;;;;;12.53;70.35;101009.97;10515020;28;20368;-62
2022/04/13 03:46:34;;;;;;;;;;;;;;;12.53;70.60;101009.97;10533382;28;20376;-62
2022/04/13 03:51:56;;;;;;;;;;;;;;;12.47;70.91;101013.00;10530420;28;19924;-60
2022/04/13 03:57:17;;;;;;;;;;;;;;;12.48;71.38;101021.69;10542116;28;19950;-62
2022/04/13 04:02:39;;;;;;;;;;;;;;;12.45;71.39;101037.56;10529896;28;19929;-62
2022/04/13 04:08:01;;;;;;;;;;;;;;;12.43;71.75;101036.84;10535194;28;19928;-61
2022/04/13 04:13:23;;;;;;;;;;;;;;;12.40;71.23;101050.97;10527648;28;19948;-61
2022/04/13 04:18:45;;;;;;;;;;;;;;;12.33;72.12;101048.88;10534557;28;19928;-61
2022/04/13 04:24:07;;;;;;;;;;;;;;;12.23;72.07;101059.13;10549453;28;19924;-60
2022/04/13 04:29:28;;;;;;;;;;;;;;;12.23;72.40;101047.81;10533437;28;19932;-62
2022/04/13 04:34:50;;;;;;;;;;;;;;;12.24;72.80;101049.50;10527723;28;19928;-62
2022/04/13 04:40:11;;;;;;;;;;;;;;;12.24;72.27;101054.72;10533738;28;19939;-60
2022/04/13 04:45:33;;;;;;;;;;;;;;;12.23;72.80;101048.66;10531630;28;19924;-62
2022/04/13 04:50:55;;;;;;;;;;;;;;;12.23;72.83;101063.50;10531828;28;19924;-61
2022/04/13 04:56:20;;;;;;;;;;;;;;;12.17;72.78;101066.53;10520109;28;19935;-61
2022/04/13 05:01:42;;;;;;;;;;;;;;;12.12;72.96;101074.69;10556872;28;19924;-62
2022/04/13 05:07:04;;;;;;;;;;;;;;;12.10;73.70;101084.41;10532527;28;20332;-62
2022/04/13 05:12:26;;;;;;;;;;;;;;;12.11;74.07;101100.91;10520482;28;19928;-62
2022/04/13 05:17:47;;;;;;;;;;;;;;;12.16;73.43;101104.06;10530825;28;19935;-61
2022/04/13 05:23:09;;;;;;;;;;;;;;;12.26;73.41;101115.56;10533460;28;19931;-61
2022/04/13 05:28:30;;;;;;;;;;;;;;;12.33;73.77;101128.13;10536041;28;19924;-62
2022/04/13 05:33:52;;;;;;;;;;;;;;;12.41;73.98;101125.00;10527548;28;20438;-62
2022/04/13 05:39:13;;;;;;;;;;;;;;;12.49;72.91;101129.63;10540282;28;19924;-62
2022/04/13 05:44:35;;;;;;;;;;;;;;;12.68;72.82;101130.03;10539136;28;20300;-61
2022/04/13 05:49:56;;;;;;;;;;;;;;;12.82;71.55;101137.78;10526402;28;19928;-62
2022/04/13 05:55:18;;;;;;;;;;;;;;;12.99;71.27;101141.91;10535022;28;19928;-62
2022/04/13 06:00:40;;;;;;;;;;;;;;;13.14;70.69;101148.69;10538914;28;19928;-62
2022/04/13 06:06:01;;;;;;;;;;;;;;;13.24;70.27;101161.03;10534590;28;19930;-62
2022/04/13 06:11:23;;;;;;;;;;;;;;;13.37;69.98;101156.59;10537957;28;19927;-62
2022/04/13 06:16:44;;;;;;;;;;;;;;;13.45;70.06;101159.50;10534304;28;20380;-62
2022/04/13 06:22:06;;;;;;;;;;;;;;;13.56;69.86;101172.66;10531396;28;19930;-61
2022/04/13 06:27:28;;;;;;;;;;;;;;;13.69;69.67;101169.06;10537096;28;20409;-61
2022/04/13 06:32:49;;;;;;;;;;;;;;;13.82;69.77;101169.84;10531602;28;20003;-62
2022/04/13 06:38:11;;;;;;;;;;;;;;;14.01;69.77;101171.97;10537183;28;19947;-61
2022/04/13 06:43:33;;;;;;;;;;;;;;;14.15;69.47;101177.06;10530400;28;19924;-62
2022/04/13 06:48:54;;;;;;;;;;;;;;;14.28;69.46;101183.06;10531629;28;19931;-62
2022/04/13 06:54:16;;;;;;;;;;;;;;;14.40;69.52;101190.06;10530965;28;20630;-62
2022/04/13 06:59:38;;;;;;;;;;;;;;;14.49;69.56;101198.91;10510309;28;19931;-62
2022/04/13 07:05:00;;;;;;;;;;;;;;;14.60;69.78;101201.56;10529945;28;19924;-61
2022/04/13 07:10:22;;;;;;;;;;;;;;;14.72;69.68;101216.38;10529287;28;19950;-61
2022/04/13 07:15:44;;;;;;;;;;;;;;;14.82;69.34;101217.38;10519792;28;19932;-62
2022/04/13 07:21:05;;;;;;;;;;;;;;;14.87;69.59;101228.34;10490324;28;20015;-62
2022/04/13 07:26:26;;;;;;;;;;;;;;;14.91;70.02;101236.84;10509811;28;19932;-61
2022/04/13 07:31:48;;;;;;;;;;;;;;;14.96;70.27;101240.78;10506821;28;19928;-61
2022/04/13 07:37:10;;;;;;;;;;;;;;;15.00;70.50;101244.00;10508387;28;20418;-62
2022/04/13 07:42:32;;;;;;;;;;;;;;;15.04;70.58;101246.28;10485388;28;19933;-62
2022/04/13 07:47:53;;;;;;;;;;;;;;;15.12;70.77;101258.81;10506852;28;19952;-61
2022/04/13 07:53:14;;;;;;;;;;;;;;;15.21;70.85;101251.09;10509996;28;19934;-61
2022/04/13 07:58:36;;;;;;;;;;;;;;;15.34;70.81;101259.72;10502873;28;19931;-62
2022/04/13 08:03:57;;;;;;;;;;;;;;;15.47;70.24;101258.66;10511206;28;19947;-61
2022/04/13 08:09:39;;;;;;;;;;;;;;;15.61;70.36;101271.56;10513187;28;19931;-62
2022/04/13 08:15:02;;;;;;;;;;;;;;;15.80;70.15;101277.03;10532823;28;19935;-62
2022/04/13 08:20:24;;;;;;;;;;;;;;;15.93;70.26;101287.44;10529951;28;19934;-61
2022/04/13 08:25:45;;;;;;;;;;;;;;;16.03;70.27;101291.00;10518167;28;19924;-63
2022/04/13 08:31:09;;;;;;;;;;;;;;;16.16;70.94;101287.28;10518251;28;20276;-63
2022/04/13 08:36:31;;;;;;;;;;;;;;;16.31;71.41;101287.84;10531086;28;19963;-64
2022/04/13 08:41:57;;;;;;;;;;;;;;;16.55;69.88;101298.09;10522816;28;20493;-64
2022/04/13 08:47:20;;;;;;;;;;;;;;;16.73;69.95;101296.56;10530300;28;19928;-64
2022/04/13 08:52:43;;;;;;;;;;;;;;;16.95;69.83;101298.28;10528583;28;19935;-63
2022/04/13 08:58:23;;;;;;;;;;;;;;;17.09;69.85;101309.31;10522727;28;19932;-64
2022/04/13 09:03:47;;;;;;;;;;;;;;;17.26;69.70;101294.69;10518333;28;20110;-63
2022/04/13 09:09:14;;;;;;;;;;;;;;;17.37;70.02;101303.41;10534322;28;20019;-64
2022/04/13 09:14:40;;;;;;;;;;;;;;;17.56;69.55;101303.53;10537126;28;20380;-64
2022/04/13 09:20:02;;;;;;;;;;;;;;;17.76;68.90;101315.81;10538468;28;19928;-65
2022/04/13 09:25:23;;;;;;;;;;;;;;;17.84;69.22;101321.28;10545529;28;19924;-63
2022/04/13 09:30:45;;;;;;;;;;;;;;;18.06;68.23;101318.41;10501852;28;19925;-64
2022/04/13 09:36:07;;;;;;;;;;;;;;;18.27;67.70;101333.22;10538458;28;19931;-60
2022/04/13 09:41:36;;;;;;;;;;;;;;;18.44;66.99;101325.50;10517633;28;20276;-62
2022/04/13 09:47:08;;;;;;;;;;;;;;;18.64;66.86;101327.19;10531985;28;19931;-62
2022/04/13 09:52:38;;;;;;;;;;;;;;;18.83;65.72;101329.03;10536222;28;19947;-61
2022/04/13 09:58:06;;;;;;;;;;;;;;;18.98;65.59;101325.81;10547253;28;19934;-61
2022/04/13 10:03:28;;;;;;;;;;;;;;;19.08;65.95;101323.16;10527633;28;19928;-62
2022/04/13 10:08:57;;;;;;;;;;;;;;;19.21;66.14;101327.19;10514727;28;20000;-61
2022/04/13 10:14:18;;;;;;;;;;;;;;;19.29;66.55;101327.34;10525487;28;19928;-62
2022/04/13 10:19:40;;;;;;;;;;;;;;;19.41;65.62;101326.19;10531922;28;19935;-62
2022/04/13 10:25:17;;;;;;;;;;;;;;;19.56;64.97;101332.69;10531755;28;19928;-61
2022/04/13 10:30:41;;;;;;;;;;;;;;;19.70;64.24;101330.44;10529825;28;19924;-63
2022/04/13 10:36:02;;;;;;;;;;;;;;;19.90;64.41;101326.72;10535646;28;19924;-63
2022/04/13 10:41:25;;;;;;;;;;;;;;;20.00;64.25;101347.88;10521981;28;19924;-66
2022/04/13 10:46:48;;;;;;;;;;;;;;;20.04;63.85;101343.97;10533847;28;19930;-62
2022/04/13 10:52:13;;;;;;;;;;;;;;;20.11;64.03;101350.31;10532456;28;19924;-62
2022/04/13 10:57:36;;;;;;;;;;;;;;;20.14;64.31;101350.03;10546989;28;19924;-63
2022/04/13 11:03:00;;;;;;;;;;;;;;;20.16;64.75;101345.44;10538402;28;19968;-63
2022/04/13 11:08:28;;;;;;;;;;;;;;;20.31;64.09;101359.84;10531361;28;19971;-63
2022/04/13 11:13:50;;;;;;;;;;;;;;;20.37;64.36;101357.44;10513413;28;19932;-62
2022/04/13 11:19:12;;;;;;;;;;;;;;;20.53;65.38;101358.44;10532942;28;19932;-62
2022/04/13 11:24:35;;;;;;;;;;;;;;;20.60;65.13;101353.38;10518113;28;19943;-62
2022/04/13 11:30:01;;;;;;;;;;;;;;;20.63;65.23;101353.94;10527502;28;19924;-62
2022/04/13 11:35:25;;;;;;;;;;;;;;;20.65;64.90;101361.72;10504723;28;19928;-62
2022/04/13 11:41:07;;;;;;;;;;;;;;;20.76;64.19;101366.78;10520659;28;19931;-62
2022/04/13 11:46:39;;;;;;;;;;;;;;;20.80;64.58;101366.41;10538634;28;20369;-62
2022/04/13 11:52:20;;;;;;;;;;;;;;;20.66;64.17;101374.84;10517199;28;20407;-62
2022/04/13 11:57:51;;;;;;;;;;;;;;;20.68;65.39;101380.81;10535296;28;20019;-62
2022/04/13 12:03:20;;;;;;;;;;;;;;;20.91;64.06;101386.53;10503939;28;20293;-62
2022/04/13 12:08:50;;;;;;;;;;;;;;;21.05;64.18;101386.00;10524379;28;19924;-65
2022/04/13 12:14:24;;;;;;;;;;;;;;;21.13;63.65;101399.34;10523597;28;19924;-63
2022/04/13 12:19:46;;;;;;;;;;;;;;;21.21;63.98;101396.75;10524009;28;19924;-63
2022/04/13 12:25:08;;;;;;;;;;;;;;;21.38;63.24;101404.72;10526454;28;19928;-63
2022/04/13 12:30:29;;;;;;;;;;;;;;;21.50;63.50;101398.16;10512410;28;19928;-63
2022/04/13 12:35:54;;;;;;;;;;;;;;;21.47;62.24;101398.47;10519755;28;19930;-63
2022/04/13 12:41:17;;;;;;;;;;;;;;;21.59;61.04;101402.56;10523432;28;19931;-64
2022/04/13 12:46:38;;;;;;;;;;;;;;;21.69;60.32;101409.44;10529265;28;19935;-63
2022/04/13 12:52:00;;;;;;;;;;;;;;;21.78;60.10;101413.00;10529306;28;19978;-63
2022/04/13 12:57:21;;;;;;;;;;;;;;;21.70;61.26;101410.28;10511788;28;19964;-63
2022/04/13 13:02:49;;;;;;;;;;;;;;;21.78;60.30;101418.31;10523364;28;19934;-63
2022/04/13 13:08:11;;;;;;;;;;;;;;;21.80;59.88;101426.94;10529159;28;20277;-63
2022/04/13 13:13:37;;;;;;;;;;;;;;;21.61;61.15;101411.22;10527905;28;19932;-63
2022/04/13 13:19:31;;;;;;;;;;;;;;;21.54;62.20;101415.47;10528709;28;20368;-64
2022/04/13 13:24:58;;;;;;;;;;;;;;;21.60;61.12;101425.47;10472981;28;19978;-63
2022/04/13 13:30:20;;;;;;;;;;;;;;;21.61;61.03;101433.25;10506295;28;19924;-63
2022/04/13 13:35:41;;;;;;;;;;;;;;;21.56;62.37;101434.69;10526378;28;20384;-63
2022/04/13 13:41:09;;;;;;;;;;;;;;;21.60;61.81;101425.47;10532973;28;19932;-63
2022/04/13 13:46:31;;;;;;;;;;;;;;;21.56;60.82;101440.84;10527846;28;19928;-63
2022/04/13 13:51:54;;;;;;;;;;;;;;;21.47;63.30;101451.53;10527567;28;19932;-63
2022/04/13 13:57:15;;;;;;;;;;;;;;;21.27;61.26;101450.03;10546498;28;19935;-63
2022/04/13 14:02:37;;;;;;;;;;;;;;;21.12;61.73;101454.19;10545960;28;19939;-63
2022/04/13 14:08:00;;;;;;;;;;;;;;;21.18;62.74;101455.41;10529969;28;20380;-63
2022/04/13 14:13:22;;;;;;;;;;;;;;;21.09;61.46;101462.47;10534055;28;20525;-63
2022/04/13 14:18:44;;;;;;;;;;;;;;;21.04;61.19;101458.56;10516649;28;20007;-63
2022/04/13 14:24:06;;;;;;;;;;;;;;;21.00;62.59;101458.06;10531065;28;20296;-63
2022/04/13 14:29:27;;;;;;;;;;;;;;;20.89;62.63;101452.97;10517429;28;19928;-63
2022/04/13 14:34:49;;;;;;;;;;;;;;;20.94;62.23;101463.13;10509171;28;20361;-63
2022/04/13 14:40:10;;;;;;;;;;;;;;;20.94;61.89;101466.63;10509228;28;19931;-63
2022/04/13 14:45:32;;;;;;;;;;;;;;;21.01;61.99;101464.22;10518680;28;19932;-62
2022/04/13 14:50:54;;;;;;;;;;;;;;;21.23;59.25;101464.59;10518038;28;19928;-63
2022/04/13 14:56:16;;;;;;;;;;;;;;;21.31;61.97;101464.66;10536353;28;19930;-63
2022/04/13 15:01:38;;;;;;;;;;;;;;;21.12;60.34;101477.25;10534016;28;19928;-63
2022/04/13 15:07:00;;;;;;;;;;;;;;;20.91;62.64;101474.03;10527749;28;20417;-63
2022/04/13 15:12:26;;;;;;;;;;;;;;;20.84;62.38;101472.97;10529684;28;19924;-62
2022/04/13 15:17:48;;;;;;;;;;;;;;;20.75;62.67;101487.91;10531059;28;19932;-62
2022/04/13 15:23:10;;;;;;;;;;;;;;;20.72;62.72;101485.53;10526239;28;19924;-63
2022/04/13 15:28:31;;;;;;;;;;;;;;;20.70;61.62;101500.75;10532416;28;19924;-62
2022/04/13 15:33:54;;;;;;;;;;;;;;;20.71;62.07;101499.78;10530595;28;19927;-63
2022/04/13 15:39:15;;;;;;;;;;;;;;;20.65;63.58;101504.81;10511980;28;19924;-62
2022/04/13 15:44:37;;;;;;;;;;;;;;;20.60;64.16;101515.88;10502024;28;20253;-63
2022/04/13 15:49:58;;;;;;;;;;;;;;;20.64;64.05;101521.69;10515300;28;19931;-63
2022/04/13 15:55:23;;;;;;;;;;;;;;;20.42;62.93;101517.59;10496359;28;20376;-63
2022/04/13 16:00:44;;;;;;;;;;;;;;;20.23;63.15;101523.97;10506393;28;19924;-62
2022/04/13 16:06:06;;;;;;;;;;;;;;;20.11;63.33;101514.50;10503596;28;19926;-62
2022/04/13 16:11:27;;;;;;;;;;;;;;;19.99;64.50;101519.13;10494688;28;19931;-64
2022/04/13 16:16:49;;;;;;;;;;;;;;;19.94;64.50;101523.16;10512214;28;19939;-62
2022/04/13 16:22:10;;;;;;;;;;;;;;;19.82;63.77;101530.41;10516070;28;20266;-63
2022/04/13 16:27:32;;;;;;;;;;;;;;;19.78;64.32;101538.75;10524172;28;20373;-63
2022/04/13 16:32:54;;;;;;;;;;;;;;;19.71;62.24;101542.94;10490415;28;19935;-63
2022/04/13 16:38:18;;;;;;;;;;;;;;;19.63;63.25;101542.81;10506460;28;20244;-63
2022/04/13 16:43:49;;;;;;;;;;;;;;;19.51;62.85;101551.81;10496532;28;20374;-63
2022/04/13 16:49:10;;;;;;;;;;;;;;;19.41;63.51;101551.00;10493582;28;19924;-63
2022/04/13 16:54:32;;;;;;;;;;;;;;;19.36;64.54;101555.03;10514069;28;19932;-63
2022/04/13 16:59:53;;;;;;;;;;;;;;;19.31;64.72;101555.44;10529697;28;19932;-63
2022/04/13 17:05:15;;;;;;;;;;;;;;;19.18;65.04;101565.44;10534810;28;19928;-63
2022/04/13 17:10:36;;;;;;;;;;;;;;;19.05;65.38;101558.66;10513582;28;19929;-63
2022/04/13 17:15:58;;;;;;;;;;;;;;;18.94;66.01;101550.84;10507031;28;19930;-64
2022/04/13 17:21:20;;;;;;;;;;;;;;;18.86;66.18;101567.38;10506229;28;19928;-64
2022/04/13 17:26:42;;;;;;;;;;;;;;;18.73;66.72;101572.06;10496516;28;19928;-62
2022/04/13 17:32:04;;;;;;;;;;;;;;;18.59;66.33;101567.13;10492252;28;20419;-62
2022/04/13 17:37:25;;;;;;;;;;;;;;;18.54;66.28;101579.88;10517452;28;19924;-62
2022/04/13 17:42:50;;;;;;;;;;;;;;;18.50;nan;101583.75;10522839;28;20320;-61
2022/04/13 17:48:12;;;;;;;;;;;;;;;18.29;66.71;101590.00;10527348;28;19928;-62
2022/04/13 17:53:34;;;;;;;;;;;;;;;18.19;66.95;101583.00;10517332;28;19932;-61
2022/04/13 17:58:55;;;;;;;;;;;;;;;18.08;67.69;101596.22;10505824;28;19935;-61
2022/04/13 18:04:17;;;;;;;;;;;;;;;18.05;67.84;101604.38;10494928;28;19928;-61
2022/04/13 18:09:39;;;;;;;;;;;;;;;18.01;67.47;101605.63;10506942;28;19928;-61
2022/04/13 18:15:00;;;;;;;;;;;;;;;17.95;68.28;101611.41;10520637;28;20292;-62
2022/04/13 18:20:23;;;;;;;;;;;;;;;17.83;69.64;101612.41;10533604;28;20517;-61
2022/04/13 18:25:45;;;;;;;;;;;;;;;17.77;69.42;101623.44;10530314;28;19924;-61
2022/04/13 18:31:07;;;;;;;;;;;;;;;17.77;69.38;101618.19;10535287;28;19924;-61
2022/04/13 18:36:29;;;;;;;;;;;;;;;17.70;69.93;101636.31;10530367;28;20442;-61
2022/04/13 18:41:50;;;;;;;;;;;;;;;17.65;69.27;101637.63;10517666;28;19924;-61
2022/04/13 18:47:13;;;;;;;;;;;;;;;17.56;69.01;101656.84;10510117;28;19935;-61
2022/04/13 18:52:34;;;;;;;;;;;;;;;17.45;68.48;101652.44;10501779;28;19939;-62
2022/04/13 18:57:55;;;;;;;;;;;;;;;17.44;68.77;101668.38;10494639;28;19931;-62
2022/04/13 19:03:19;;;;;;;;;;;;;;;17.37;69.41;101667.19;10524963;28;19928;-62
2022/04/13 19:08:44;;;;;;;;;;;;;;;17.16;71.07;101671.50;10526413;28;19951;-61
2022/04/13 19:14:09;;;;;;;;;;;;;;;17.04;71.46;101679.50;10532744;28;19976;-62
2022/04/13 19:19:31;;;;;;;;;;;;;;;16.88;73.45;101690.38;10530668;28;19931;-62
2022/04/13 19:24:53;;;;;;;;;;;;;;;16.72;75.24;101689.88;10522826;28;19934;-62
2022/04/13 19:30:14;;;;;;;;;;;;;;;16.67;74.11;101692.03;10524833;28;20507;-62
2022/04/13 19:35:36;;;;;;;;;;;;;;;16.55;75.72;101692.94;10526279;28;19928;-61
2022/04/13 19:40:58;;;;;;;;;;;;;;;16.44;78.16;101684.19;10504806;28;19931;-61
2022/04/13 19:46:19;;;;;;;;;;;;;;;16.35;78.80;101689.28;10509380;28;19942;-61
2022/04/13 19:51:41;;;;;;;;;;;;;;;16.22;80.27;101701.66;10515964;28;20011;-61
2022/04/13 19:57:02;;;;;;;;;;;;;;;16.22;80.09;101714.81;10520567;28;20303;-61
2022/04/13 20:02:24;;;;;;;;;;;;;;;16.18;81.58;101710.72;10565569;28;19932;-61
2022/04/13 20:07:52;;;;;;;;;;;;;;;16.12;81.59;101714.63;10512033;28;20022;-61
2022/04/13 20:13:13;;;;;;;;;;;;;;;16.03;82.16;101717.09;10499274;28;19928;-61
2022/04/13 20:18:35;;;;;;;;;;;;;;;16.01;83.08;101713.75;10493786;28;19964;-61
2022/04/13 20:23:56;;;;;;;;;;;;;;;15.96;83.43;101713.25;10496889;28;20289;-65
2022/04/13 20:29:18;;;;;;;;;;;;;;;15.95;81.96;101717.66;10489645;28;19935;-63
2022/04/13 20:34:39;;;;;;;;;;;;;;;15.92;81.50;101723.16;10499186;28;19932;-64
2022/04/13 20:40:01;;;;;;;;;;;;;;;15.88;82.17;101733.97;10505187;28;19924;-63
2022/04/13 20:45:22;;;;;;;;;;;;;;;15.80;81.82;101741.59;10523128;28;19951;-64
2022/04/13 20:50:44;;;;;;;;;;;;;;;15.77;83.29;101739.19;10518900;28;19924;-63
2022/04/13 20:56:05;;;;;;;;;;;;;;;15.71;83.32;101734.38;10511584;28;19931;-63
2022/04/13 21:01:26;;;;;;;;;;;;;;;15.68;83.96;101734.59;10503830;28;20273;-64
2022/04/13 21:06:48;;;;;;;;;;;;;;;15.55;81.65;101731.97;10524924;28;19924;-63
2022/04/13 21:12:09;;;;;;;;;;;;;;;15.45;83.06;101733.56;10523898;28;19932;-64
2022/04/13 21:17:31;;;;;;;;;;;;;;;15.44;83.70;101742.41;10527841;28;19928;-64
2022/04/13 21:22:52;;;;;;;;;;;;;;;15.45;83.97;101740.59;10532889;27;19923;-63
2022/04/13 21:28:14;;;;;;;;;;;;;;;15.40;83.98;101734.84;10533958;28;19932;-64
2022/04/13 21:33:36;;;;;;;;;;;;;;;15.35;84.44;101731.69;10538849;27;19955;-64
2022/04/13 21:38:59;;;;;;;;;;;;;;;15.27;83.72;101755.03;10540802;28;20315;-63
2022/04/13 21:44:20;;;;;;;;;;;;;;;15.21;85.50;101752.78;10571303;27;19928;-64
2022/04/13 21:49:42;;;;;;;;;;;;;;;15.12;84.62;101740.31;10532042;28;19935;-64
2022/04/13 21:55:04;;;;;;;;;;;;;;;15.13;84.56;101742.00;10577235;27;19934;-64
2022/04/13 22:00:49;;;;;;;;;;;;;;;15.08;83.99;101746.72;10601660;27;20736;-64
2022/04/13 22:06:10;;;;;;;;;;;;;;;14.98;86.15;101722.03;10547564;27;19931;-63
2022/04/13 22:11:32;;;;;;;;;;;;;;;14.99;85.57;101734.19;10561685;27;19928;-61
2022/04/13 22:16:53;;;;;;;;;;;;;;;14.99;85.93;101718.44;10560213;27;19927;-63
2022/04/13 22:22:15;;;;;;;;;;;;;;;14.95;86.15;101716.13;10554679;28;19927;-63
2022/04/13 22:27:36;;;;;;;;;;;;;;;14.90;85.91;101703.31;10561604;27;19935;-63
2022/04/13 22:32:58;;;;;;;;;;;;;;;14.87;86.32;101708.78;10529479;27;20057;-63
2022/04/13 22:38:20;;;;;;;;;;;;;;;14.84;87.11;101701.13;10525852;28;20018;-63
2022/04/13 22:43:41;;;;;;;;;;;;;;;14.83;87.11;101707.31;10543720;27;19964;-64
2022/04/13 22:49:03;;;;;;;;;;;;;;;14.86;86.89;101720.22;10531163;28;19934;-63
2022/04/13 22:54:24;;;;;;;;;;;;;;;14.87;86.54;101737.66;10532507;27;19928;-64
2022/04/13 22:59:46;;;;;;;;;;;;;;;14.77;87.32;101723.47;10522393;28;19935;-63
2022/04/13 23:05:07;;;;;;;;;;;;;;;14.67;87.79;101738.16;10521323;28;19934;-64
2022/04/13 23:10:29;;;;;;;;;;;;;;;14.64;88.30;101743.63;10520600;28;19924;-63
2022/04/13 23:15:50;;;;;;;;;;;;;;;14.58;87.80;101740.56;10531070;27;20450;-64
2022/04/13 23:21:12;;;;;;;;;;;;;;;14.57;88.64;101742.31;10529627;28;19951;-64
2022/04/13 23:26:33;;;;;;;;;;;;;;;14.55;88.51;101738.13;10538388;27;19935;-63
2022/04/13 23:31:55;;;;;;;;;;;;;;;14.49;87.53;101731.50;10540977;27;19934;-64
2022/04/13 23:37:17;;;;;;;;;;;;;;;14.43;88.48;101724.03;10530920;27;19927;-64
2022/04/13 23:42:38;;;;;;;;;;;;;;;14.38;89.16;101720.03;10560762;27;19934;-63
2022/04/13 23:48:00;;;;;;;;;;;;;;;14.31;88.12;101723.16;10552764;28;19931;-64
2022/04/13 23:53:21;;;;;;;;;;;;;;;14.20;88.60;101720.41;10562760;27;19927;-64
2022/04/13 23:58:43;;;;;;;;;;;;;;;14.18;89.60;101717.03;10564620;27;19943;-64
